sensor_id;sensor_type;location;lat;lon;timestamp;temperature;humidity
11423;DHT22;5768;51.476;7.210;2022-10-16T00:03:26;15.10;23.20
11423;DHT22;5768;51.476;7.210;2022-10-16T00:08:29;15.10;23.20
11423;DHT22;5768;51.476;7.210;2022-10-16T00:13:34;15.10;22.90
11423;DHT22;5768;51.476;7.210;2022-10-16T00:18:37;15.10;22.90
11423;DHT22;5768;51.476;7.210;2022-10-16T00:23:40;15.00;22.70
11423;DHT22;5768;51.476;7.210;2022-10-16T00:28:45;15.10;22.60
11423;DHT22;5768;51.476;7.210;2022-10-16T00:33:48;15.10;22.50
11423;DHT22;5768;51.476;7.210;2022-10-16T00:38:51;15.00;22.60
11423;DHT22;5768;51.476;7.210;2022-10-16T00:43:57;15.00;22.70
11423;DHT22;5768;51.476;7.210;2022-10-16T00:49:01;15.00;22.60
11423;DHT22;5768;51.476;7.210;2022-10-16T00:54:09;15.10;22.50
11423;DHT22;5768;51.476;7.210;2022-10-16T00:59:27;15.00;22.40
11423;DHT22;5768;51.476;7.210;2022-10-16T01:04:33;15.00;22.40
11423;DHT22;5768;51.476;7.210;2022-10-16T01:09:44;15.00;22.50
11423;DHT22;5768;51.476;7.210;2022-10-16T01:14:58;14.90;22.60
11423;DHT22;5768;51.476;7.210;2022-10-16T01:20:10;14.90;22.40
11423;DHT22;5768;51.476;7.210;2022-10-16T01:25:25;14.90;22.40
11423;DHT22;5768;51.476;7.210;2022-10-16T01:30:36;14.80;22.40
11423;DHT22;5768;51.476;7.210;2022-10-16T01:35:43;14.80;22.60
11423;DHT22;5768;51.476;7.210;2022-10-16T01:40:52;14.80;22.80
11423;DHT22;5768;51.476;7.210;2022-10-16T01:46:05;14.70;22.70
11423;DHT22;5768;51.476;7.210;2022-10-16T01:51:10;14.60;22.90
11423;DHT22;5768;51.476;7.210;2022-10-16T01:56:15;14.60;23.20
11423;DHT22;5768;51.476;7.210;2022-10-16T02:01:23;14.60;23.10
11423;DHT22;5768;51.476;7.210;2022-10-16T02:06:28;14.60;23.00
11423;DHT22;5768;51.476;7.210;2022-10-16T02:11:31;14.70;23.00
11423;DHT22;5768;51.476;7.210;2022-10-16T02:16:37;14.80;22.80
11423;DHT22;5768;51.476;7.210;2022-10-16T02:21:43;14.90;22.40
11423;DHT22;5768;51.476;7.210;2022-10-16T02:26:54;14.90;22.20
11423;DHT22;5768;51.476;7.210;2022-10-16T02:32:04;14.80;22.10
11423;DHT22;5768;51.476;7.210;2022-10-16T02:37:09;14.80;22.00
11423;DHT22;5768;51.476;7.210;2022-10-16T02:42:12;15.00;22.00
11423;DHT22;5768;51.476;7.210;2022-10-16T02:47:15;14.80;21.90
11423;DHT22;5768;51.476;7.210;2022-10-16T02:52:18;14.90;21.90
11423;DHT22;5768;51.476;7.210;2022-10-16T02:57:20;15.00;21.70
11423;DHT22;5768;51.476;7.210;2022-10-16T03:02:23;15.00;21.40
11423;DHT22;5768;51.476;7.210;2022-10-16T03:07:25;15.10;21.50
11423;DHT22;5768;51.476;7.210;2022-10-16T03:12:28;15.20;21.10
11423;DHT22;5768;51.476;7.210;2022-10-16T03:17:33;15.00;20.80
11423;DHT22;5768;51.476;7.210;2022-10-16T03:22:35;14.90;21.10
11423;DHT22;5768;51.476;7.210;2022-10-16T03:27:37;14.90;20.90
11423;DHT22;5768;51.476;7.210;2022-10-16T03:32:41;15.00;20.80
11423;DHT22;5768;51.476;7.210;2022-10-16T03:37:43;15.00;20.80
11423;DHT22;5768;51.476;7.210;2022-10-16T03:42:45;14.90;20.70
11423;DHT22;5768;51.476;7.210;2022-10-16T03:47:48;14.90;20.60
11423;DHT22;5768;51.476;7.210;2022-10-16T03:52:50;14.80;20.60
11423;DHT22;5768;51.476;7.210;2022-10-16T03:57:52;14.80;20.60
11423;DHT22;5768;51.476;7.210;2022-10-16T04:02:56;14.70;20.80
11423;DHT22;5768;51.476;7.210;2022-10-16T04:07:58;14.70;20.90
11423;DHT22;5768;51.476;7.210;2022-10-16T04:13:00;14.50;21.10
11423;DHT22;5768;51.476;7.210;2022-10-16T04:18:04;14.50;21.00
11423;DHT22;5768;51.476;7.210;2022-10-16T04:23:07;14.50;20.80
11423;DHT22;5768;51.476;7.210;2022-10-16T04:28:09;14.50;20.90
11423;DHT22;5768;51.476;7.210;2022-10-16T04:33:13;14.50;21.00
11423;DHT22;5768;51.476;7.210;2022-10-16T04:38:15;14.40;20.70
11423;DHT22;5768;51.476;7.210;2022-10-16T04:43:17;14.50;21.00
11423;DHT22;5768;51.476;7.210;2022-10-16T04:48:20;14.50;20.90
11423;DHT22;5768;51.476;7.210;2022-10-16T04:53:22;14.50;20.80
11423;DHT22;5768;51.476;7.210;2022-10-16T04:58:24;14.50;20.80
11423;DHT22;5768;51.476;7.210;2022-10-16T05:03:28;14.40;20.70
11423;DHT22;5768;51.476;7.210;2022-10-16T05:08:30;14.40;20.90
11423;DHT22;5768;51.476;7.210;2022-10-16T05:13:32;14.40;20.80
11423;DHT22;5768;51.476;7.210;2022-10-16T05:18:35;14.50;20.80
11423;DHT22;5768;51.476;7.210;2022-10-16T05:23:38;14.60;20.80
11423;DHT22;5768;51.476;7.210;2022-10-16T05:28:40;14.60;20.60
11423;DHT22;5768;51.476;7.210;2022-10-16T05:33:43;14.60;20.80
11423;DHT22;5768;51.476;7.210;2022-10-16T05:38:45;14.50;20.90
11423;DHT22;5768;51.476;7.210;2022-10-16T05:43:52;14.60;20.80
11423;DHT22;5768;51.476;7.210;2022-10-16T05:48:55;14.60;21.00
11423;DHT22;5768;51.476;7.210;2022-10-16T05:53:57;14.60;20.90
11423;DHT22;5768;51.476;7.210;2022-10-16T05:58:59;14.50;21.00
11423;DHT22;5768;51.476;7.210;2022-10-16T06:04:03;14.60;21.10
11423;DHT22;5768;51.476;7.210;2022-10-16T06:09:05;14.60;21.10
11423;DHT22;5768;51.476;7.210;2022-10-16T06:14:08;14.50;21.30
11423;DHT22;5768;51.476;7.210;2022-10-16T06:19:11;14.50;21.40
11423;DHT22;5768;51.476;7.210;2022-10-16T06:24:13;14.40;21.50
11423;DHT22;5768;51.476;7.210;2022-10-16T06:29:16;14.50;21.40
11423;DHT22;5768;51.476;7.210;2022-10-16T06:34:19;14.60;21.40
11423;DHT22;5768;51.476;7.210;2022-10-16T06:39:21;14.60;21.40
11423;DHT22;5768;51.476;7.210;2022-10-16T06:44:23;14.60;21.20
11423;DHT22;5768;51.476;7.210;2022-10-16T06:49:27;14.80;21.10
11423;DHT22;5768;51.476;7.210;2022-10-16T06:54:32;14.80;21.00
11423;DHT22;5768;51.476;7.210;2022-10-16T06:59:37;15.00;21.00
11423;DHT22;5768;51.476;7.210;2022-10-16T07:04:40;14.90;20.90
11423;DHT22;5768;51.476;7.210;2022-10-16T07:09:42;14.80;21.10
11423;DHT22;5768;51.476;7.210;2022-10-16T07:14:44;15.00;21.00
11423;DHT22;5768;51.476;7.210;2022-10-16T07:19:48;14.90;21.10
11423;DHT22;5768;51.476;7.210;2022-10-16T07:24:53;14.90;21.20
11423;DHT22;5768;51.476;7.210;2022-10-16T07:29:55;14.90;21.10
11423;DHT22;5768;51.476;7.210;2022-10-16T07:34:58;14.90;21.20
11423;DHT22;5768;51.476;7.210;2022-10-16T07:40:00;15.00;21.20
11423;DHT22;5768;51.476;7.210;2022-10-16T07:45:03;15.00;21.20
11423;DHT22;5768;51.476;7.210;2022-10-16T07:50:08;15.30;20.80
11423;DHT22;5768;51.476;7.210;2022-10-16T07:55:10;15.50;20.50
11423;DHT22;5768;51.476;7.210;2022-10-16T08:00:13;15.60;20.30
11423;DHT22;5768;51.476;7.210;2022-10-16T08:05:16;15.80;20.10
11423;DHT22;5768;51.476;7.210;2022-10-16T08:10:20;15.90;19.90
11423;DHT22;5768;51.476;7.210;2022-10-16T08:15:25;16.10;19.80
11423;DHT22;5768;51.476;7.210;2022-10-16T08:20:30;16.20;19.60
11423;DHT22;5768;51.476;7.210;2022-10-16T08:25:35;16.30;19.40
11423;DHT22;5768;51.476;7.210;2022-10-16T08:30:37;16.40;19.10
11423;DHT22;5768;51.476;7.210;2022-10-16T08:35:42;16.60;18.80
11423;DHT22;5768;51.476;7.210;2022-10-16T08:40:44;16.70;18.30
11423;DHT22;5768;51.476;7.210;2022-10-16T08:46:06;16.80;17.90
11423;DHT22;5768;51.476;7.210;2022-10-16T08:51:30;16.80;17.70
11423;DHT22;5768;51.476;7.210;2022-10-16T08:56:34;16.80;17.80
11423;DHT22;5768;51.476;7.210;2022-10-16T09:01:38;16.90;18.00
11423;DHT22;5768;51.476;7.210;2022-10-16T09:06:46;16.80;17.60
11423;DHT22;5768;51.476;7.210;2022-10-16T09:11:55;17.00;17.70
11423;DHT22;5768;51.476;7.210;2022-10-16T09:17:06;17.00;17.70
11423;DHT22;5768;51.476;7.210;2022-10-16T09:22:27;17.10;17.90
11423;DHT22;5768;51.476;7.210;2022-10-16T09:27:30;17.20;17.80
11423;DHT22;5768;51.476;7.210;2022-10-16T09:32:32;17.30;17.20
11423;DHT22;5768;51.476;7.210;2022-10-16T09:37:36;17.50;17.20
11423;DHT22;5768;51.476;7.210;2022-10-16T09:42:38;17.80;17.10
11423;DHT22;5768;51.476;7.210;2022-10-16T09:47:42;17.90;16.70
11423;DHT22;5768;51.476;7.210;2022-10-16T09:52:46;18.10;16.80
11423;DHT22;5768;51.476;7.210;2022-10-16T09:57:49;17.80;16.90
11423;DHT22;5768;51.476;7.210;2022-10-16T10:02:52;17.90;16.80
11423;DHT22;5768;51.476;7.210;2022-10-16T10:07:58;18.10;16.70
11423;DHT22;5768;51.476;7.210;2022-10-16T10:13:03;18.20;16.50
11423;DHT22;5768;51.476;7.210;2022-10-16T10:18:16;18.20;16.60
11423;DHT22;5768;51.476;7.210;2022-10-16T10:23:23;18.30;16.40
11423;DHT22;5768;51.476;7.210;2022-10-16T10:28:42;18.60;16.30
11423;DHT22;5768;51.476;7.210;2022-10-16T10:34:00;18.70;16.10
11423;DHT22;5768;51.476;7.210;2022-10-16T10:39:16;18.70;16.10
11423;DHT22;5768;51.476;7.210;2022-10-16T10:44:37;18.70;16.10
11423;DHT22;5768;51.476;7.210;2022-10-16T10:50:07;18.50;16.10
11423;DHT22;5768;51.476;7.210;2022-10-16T10:55:22;18.50;16.10
11423;DHT22;5768;51.476;7.210;2022-10-16T11:00:38;18.90;16.10
11423;DHT22;5768;51.476;7.210;2022-10-16T11:05:50;19.20;16.00
11423;DHT22;5768;51.476;7.210;2022-10-16T11:11:02;19.40;15.90
11423;DHT22;5768;51.476;7.210;2022-10-16T11:16:14;19.80;15.50
11423;DHT22;5768;51.476;7.210;2022-10-16T11:21:21;19.70;15.40
11423;DHT22;5768;51.476;7.210;2022-10-16T11:26:28;19.60;15.30
11423;DHT22;5768;51.476;7.210;2022-10-16T11:31:37;20.20;15.20
11423;DHT22;5768;51.476;7.210;2022-10-16T11:36:44;20.60;14.90
11423;DHT22;5768;51.476;7.210;2022-10-16T11:41:53;20.50;14.80
11423;DHT22;5768;51.476;7.210;2022-10-16T11:47:09;20.10;14.70
11423;DHT22;5768;51.476;7.210;2022-10-16T11:52:25;20.80;14.70
11423;DHT22;5768;51.476;7.210;2022-10-16T11:57:35;21.10;14.50
11423;DHT22;5768;51.476;7.210;2022-10-16T12:02:52;21.30;14.20
11423;DHT22;5768;51.476;7.210;2022-10-16T12:08:07;21.50;14.10
11423;DHT22;5768;51.476;7.210;2022-10-16T12:13:33;22.10;13.90
11423;DHT22;5768;51.476;7.210;2022-10-16T12:18:36;22.40;13.80
11423;DHT22;5768;51.476;7.210;2022-10-16T12:23:48;22.20;13.50
11423;DHT22;5768;51.476;7.210;2022-10-16T12:28:53;22.30;13.60
11423;DHT22;5768;51.476;7.210;2022-10-16T12:34:01;22.70;13.40
11423;DHT22;5768;51.476;7.210;2022-10-16T12:39:04;23.20;13.20
11423;DHT22;5768;51.476;7.210;2022-10-16T12:44:24;22.80;13.30
11423;DHT22;5768;51.476;7.210;2022-10-16T12:49:34;22.10;13.50
11423;DHT22;5768;51.476;7.210;2022-10-16T12:54:39;22.80;13.50
11423;DHT22;5768;51.476;7.210;2022-10-16T12:59:48;23.00;13.10
11423;DHT22;5768;51.476;7.210;2022-10-16T13:05:12;22.00;13.60
11423;DHT22;5768;51.476;7.210;2022-10-16T13:10:28;22.10;13.50
11423;DHT22;5768;51.476;7.210;2022-10-16T13:15:50;23.00;12.90
11423;DHT22;5768;51.476;7.210;2022-10-16T13:21:17;24.40;12.50
11423;DHT22;5768;51.476;7.210;2022-10-16T13:26:34;25.00;12.00
11423;DHT22;5768;51.476;7.210;2022-10-16T13:31:44;25.40;11.70
11423;DHT22;5768;51.476;7.210;2022-10-16T13:36:48;24.80;11.80
11423;DHT22;5768;51.476;7.210;2022-10-16T13:42:02;23.90;12.20
11423;DHT22;5768;51.476;7.210;2022-10-16T13:47:15;23.00;12.50
11423;DHT22;5768;51.476;7.210;2022-10-16T13:52:20;23.20;12.60
11423;DHT22;5768;51.476;7.210;2022-10-16T13:57:24;23.40;12.50
11423;DHT22;5768;51.476;7.210;2022-10-16T14:02:32;23.10;12.50
11423;DHT22;5768;51.476;7.210;2022-10-16T14:07:38;23.10;12.60
11423;DHT22;5768;51.476;7.210;2022-10-16T14:12:41;23.40;12.50
11423;DHT22;5768;51.476;7.210;2022-10-16T14:17:47;23.70;12.40
11423;DHT22;5768;51.476;7.210;2022-10-16T14:23:01;24.10;12.30
11423;DHT22;5768;51.476;7.210;2022-10-16T14:28:15;25.70;11.90
11423;DHT22;5768;51.476;7.210;2022-10-16T14:33:23;25.00;11.90
11423;DHT22;5768;51.476;7.210;2022-10-16T14:38:26;24.10;12.20
11423;DHT22;5768;51.476;7.210;2022-10-16T14:43:33;22.90;12.60
11423;DHT22;5768;51.476;7.210;2022-10-16T14:48:40;22.50;12.90
11423;DHT22;5768;51.476;7.210;2022-10-16T14:53:44;23.40;12.80
11423;DHT22;5768;51.476;7.210;2022-10-16T14:58:46;24.00;12.60
11423;DHT22;5768;51.476;7.210;2022-10-16T15:03:56;24.10;12.60
11423;DHT22;5768;51.476;7.210;2022-10-16T15:08:58;24.20;12.40
11423;DHT22;5768;51.476;7.210;2022-10-16T15:14:00;23.70;12.60
11423;DHT22;5768;51.476;7.210;2022-10-16T15:19:05;23.20;13.10
11423;DHT22;5768;51.476;7.210;2022-10-16T15:24:11;22.60;13.20
11423;DHT22;5768;51.476;7.210;2022-10-16T15:29:15;22.20;13.60
11423;DHT22;5768;51.476;7.210;2022-10-16T15:34:18;22.00;13.40
11423;DHT22;5768;51.476;7.210;2022-10-16T15:39:21;21.80;13.60
11423;DHT22;5768;51.476;7.210;2022-10-16T15:44:23;21.60;13.90
11423;DHT22;5768;51.476;7.210;2022-10-16T15:49:31;21.40;14.20
11423;DHT22;5768;51.476;7.210;2022-10-16T15:54:33;21.10;14.80
11423;DHT22;5768;51.476;7.210;2022-10-16T15:59:35;20.90;15.00
11423;DHT22;5768;51.476;7.210;2022-10-16T16:04:39;20.80;15.30
11423;DHT22;5768;51.476;7.210;2022-10-16T16:09:42;20.70;15.40
11423;DHT22;5768;51.476;7.210;2022-10-16T16:14:45;20.60;15.40
11423;DHT22;5768;51.476;7.210;2022-10-16T16:19:51;20.40;15.40
11423;DHT22;5768;51.476;7.210;2022-10-16T16:24:53;20.20;15.50
11423;DHT22;5768;51.476;7.210;2022-10-16T16:29:56;20.10;15.50
11423;DHT22;5768;51.476;7.210;2022-10-16T16:34:59;20.10;15.70
11423;DHT22;5768;51.476;7.210;2022-10-16T16:40:03;19.90;15.60
11423;DHT22;5768;51.476;7.210;2022-10-16T16:45:07;19.80;15.80
11423;DHT22;5768;51.476;7.210;2022-10-16T16:50:11;19.60;16.00
11423;DHT22;5768;51.476;7.210;2022-10-16T16:55:13;19.40;16.00
11423;DHT22;5768;51.476;7.210;2022-10-16T17:00:16;19.30;16.20
11423;DHT22;5768;51.476;7.210;2022-10-16T17:05:19;19.10;16.40
11423;DHT22;5768;51.476;7.210;2022-10-16T17:10:21;18.90;16.40
11423;DHT22;5768;51.476;7.210;2022-10-16T17:15:24;19.10;16.60
11423;DHT22;5768;51.476;7.210;2022-10-16T17:20:27;19.10;16.60
11423;DHT22;5768;51.476;7.210;2022-10-16T17:25:29;19.10;16.60
11423;DHT22;5768;51.476;7.210;2022-10-16T17:30:32;18.90;16.80
11423;DHT22;5768;51.476;7.210;2022-10-16T17:35:41;18.80;16.90
11423;DHT22;5768;51.476;7.210;2022-10-16T17:40:45;18.80;16.90
11423;DHT22;5768;51.476;7.210;2022-10-16T17:45:47;18.70;17.00
11423;DHT22;5768;51.476;7.210;2022-10-16T17:50:50;18.80;16.90
11423;DHT22;5768;51.476;7.210;2022-10-16T17:55:52;18.90;16.90
11423;DHT22;5768;51.476;7.210;2022-10-16T18:00:59;18.80;16.80
11423;DHT22;5768;51.476;7.210;2022-10-16T18:06:03;18.80;16.70
11423;DHT22;5768;51.476;7.210;2022-10-16T18:11:05;18.80;16.70
11423;DHT22;5768;51.476;7.210;2022-10-16T18:16:09;18.80;16.80
11423;DHT22;5768;51.476;7.210;2022-10-16T18:21:16;18.70;16.90
11423;DHT22;5768;51.476;7.210;2022-10-16T18:26:21;18.70;16.90
11423;DHT22;5768;51.476;7.210;2022-10-16T18:31:24;18.70;16.80
11423;DHT22;5768;51.476;7.210;2022-10-16T18:36:30;18.60;16.90
11423;DHT22;5768;51.476;7.210;2022-10-16T18:41:34;18.50;17.00
11423;DHT22;5768;51.476;7.210;2022-10-16T18:46:38;18.50;17.00
11423;DHT22;5768;51.476;7.210;2022-10-16T18:51:42;18.50;17.00
11423;DHT22;5768;51.476;7.210;2022-10-16T18:56:44;18.40;17.20
11423;DHT22;5768;51.476;7.210;2022-10-16T19:01:48;18.50;17.20
11423;DHT22;5768;51.476;7.210;2022-10-16T19:06:52;18.50;17.30
11423;DHT22;5768;51.476;7.210;2022-10-16T19:11:55;18.40;17.40
11423;DHT22;5768;51.476;7.210;2022-10-16T19:16:57;18.40;17.40
11423;DHT22;5768;51.476;7.210;2022-10-16T19:22:01;18.40;17.50
11423;DHT22;5768;51.476;7.210;2022-10-16T19:27:13;18.40;17.60
11423;DHT22;5768;51.476;7.210;2022-10-16T19:32:16;18.30;18.90
11423;DHT22;5768;51.476;7.210;2022-10-16T19:37:19;18.20;19.30
11423;DHT22;5768;51.476;7.210;2022-10-16T19:42:25;18.20;19.80
11423;DHT22;5768;51.476;7.210;2022-10-16T19:47:27;18.20;20.00
11423;DHT22;5768;51.476;7.210;2022-10-16T19:52:30;18.10;20.40
11423;DHT22;5768;51.476;7.210;2022-10-16T19:57:34;18.00;20.70
11423;DHT22;5768;51.476;7.210;2022-10-16T20:02:37;18.00;20.90
11423;DHT22;5768;51.476;7.210;2022-10-16T20:07:40;18.00;21.10
11423;DHT22;5768;51.476;7.210;2022-10-16T20:12:43;18.10;21.10
11423;DHT22;5768;51.476;7.210;2022-10-16T20:17:45;18.10;21.20
11423;DHT22;5768;51.476;7.210;2022-10-16T20:22:48;18.00;21.50
11423;DHT22;5768;51.476;7.210;2022-10-16T20:27:51;17.90;21.70
11423;DHT22;5768;51.476;7.210;2022-10-16T20:32:53;17.80;22.00
11423;DHT22;5768;51.476;7.210;2022-10-16T20:37:57;17.80;22.20
11423;DHT22;5768;51.476;7.210;2022-10-16T20:42:59;17.70;22.40
11423;DHT22;5768;51.476;7.210;2022-10-16T20:48:01;17.70;22.50
11423;DHT22;5768;51.476;7.210;2022-10-16T20:53:06;17.70;22.40
11423;DHT22;5768;51.476;7.210;2022-10-16T20:58:09;17.60;22.40
11423;DHT22;5768;51.476;7.210;2022-10-16T21:03:12;17.50;22.40
11423;DHT22;5768;51.476;7.210;2022-10-16T21:08:16;17.50;22.40
11423;DHT22;5768;51.476;7.210;2022-10-16T21:13:18;17.40;22.40
11423;DHT22;5768;51.476;7.210;2022-10-16T21:18:20;17.30;22.70
11423;DHT22;5768;51.476;7.210;2022-10-16T21:23:23;17.20;22.80
11423;DHT22;5768;51.476;7.210;2022-10-16T21:28:26;17.20;23.00
11423;DHT22;5768;51.476;7.210;2022-10-16T21:33:28;17.00;23.20
11423;DHT22;5768;51.476;7.210;2022-10-16T21:38:32;16.90;23.50
11423;DHT22;5768;51.476;7.210;2022-10-16T21:43:34;16.80;23.70
11423;DHT22;5768;51.476;7.210;2022-10-16T21:48:36;16.80;23.80
11423;DHT22;5768;51.476;7.210;2022-10-16T21:53:40;16.70;23.90
11423;DHT22;5768;51.476;7.210;2022-10-16T21:58:43;16.70;23.90
11423;DHT22;5768;51.476;7.210;2022-10-16T22:03:46;16.80;24.10
11423;DHT22;5768;51.476;7.210;2022-10-16T22:08:51;16.60;24.10
11423;DHT22;5768;51.476;7.210;2022-10-16T22:13:55;16.60;24.30
11423;DHT22;5768;51.476;7.210;2022-10-16T22:18:57;16.70;24.30
11423;DHT22;5768;51.476;7.210;2022-10-16T22:24:04;16.50;24.40
11423;DHT22;5768;51.476;7.210;2022-10-16T22:29:07;16.50;24.70
11423;DHT22;5768;51.476;7.210;2022-10-16T22:34:13;16.50;24.80
11423;DHT22;5768;51.476;7.210;2022-10-16T22:39:17;16.40;25.00
11423;DHT22;5768;51.476;7.210;2022-10-16T22:44:19;16.40;26.70
11423;DHT22;5768;51.476;7.210;2022-10-16T22:49:21;16.50;27.20
11423;DHT22;5768;51.476;7.210;2022-10-16T22:54:25;16.60;27.00
11423;DHT22;5768;51.476;7.210;2022-10-16T22:59:27;16.60;27.00
11423;DHT22;5768;51.476;7.210;2022-10-16T23:04:30;16.70;27.10
11423;DHT22;5768;51.476;7.210;2022-10-16T23:09:34;16.70;27.10
11423;DHT22;5768;51.476;7.210;2022-10-16T23:14:36;16.70;27.20
11423;DHT22;5768;51.476;7.210;2022-10-16T23:19:38;16.70;27.30
11423;DHT22;5768;51.476;7.210;2022-10-16T23:24:42;16.70;27.10
11423;DHT22;5768;51.476;7.210;2022-10-16T23:29:45;16.60;27.20
11423;DHT22;5768;51.476;7.210;2022-10-16T23:34:47;16.60;27.30
11423;DHT22;5768;51.476;7.210;2022-10-16T23:39:50;16.50;27.20
11423;DHT22;5768;51.476;7.210;2022-10-16T23:44:53;16.50;27.30
11423;DHT22;5768;51.476;7.210;2022-10-16T23:49:55;16.50;27.20
11423;DHT22;5768;51.476;7.210;2022-10-16T23:54:58;16.50;27.30
